Syringa, Virginia
Current Conditions -  °F | °C
As of 6:15 AM on Saturday 22 Nov 2014 (Local Time) from KW75 Reporting Station
Clear Clear  
Wind Chill: 22°   Ceiling: Unl
Heat Index: 22°   Visibility: 10mi
Dew Point: 17°   Wind: 0mph
Humidity: 83%   Direction: NA
Pressure: 30.56"   Gusts: NA
Location:  37.5982°N, 76.4579°W
Report Text: KW75 221115Z AUTO 00000KT 10SM CLR M06/M08 A3056 RMK AO1 T10581083
Loading
Personal Weather Stations






























Interactive Weather Map New forecast layout! Learn more

10-Day Weather Forecast

Advertisements
Track Severe Weather on mobile